TAF KMYL
KMYL 090534Z 0906/1006 00000KT P6SM OVC050 FM092100 27005KT P6SM VCSH OVC060 FM100300 VRB03KT 2SM -SN BR OVC010=
METAR KMYL
WC KMYL
WS KMYL
WV KMYL